26 september 2022

Tijd Code Weer Temp. Zicht Plafond Wind METAR/SPECI
12:00 p.m.
V
70 °F 20 mi 25.000 ft Var Var 2 kt METAR CYEG 261800Z VRB02KT 20SM FEW060 BKN250 21/09 A3016 RMK SC1CI7 SC TR SLP219 DENSITY ALT 3400FT
11:00 a.m.
V
68 °F 20 mi 25.000 ft Var 000° 0 kt METAR CYEG 261700Z 00000KT 20SM FEW060 BKN250 20/09 A3016 RMK SC1CI5 SC TR SLP221 DENSITY ALT 3300FT
10:00 a.m.
V
63 °F 20 mi 25.000 ft 230° 230° 3 kt METAR CYEG 261600Z 23003KT 20SM SCT060 BKN250 17/09 A3017 RMK SC4CI1 SLP225 DENSITY ALT 2900FT
9:00 a.m.
V
55 °F 20 mi 6.100 ft 230° 230° 4 kt METAR CYEG 261500Z 23004KT 20SM BKN061 BKN250 13/08 A3017 RMK SC7CI1 CI TR SLP230 DENSITY ALT 2500FT
8:00 a.m.
V
50 °F 20 mi 6.300 ft 210° 210° 3 kt METAR CYEG 261400Z 21003KT 20SM BKN063 BKN250 10/08 A3016 RMK SC7CI1 CI TR SLP228
7:00 a.m.
V
46 °F 20 mi - 210° 210° 5 kt METAR CYEG 261300Z 21005KT 20SM SCT071 SCT250 08/05 A3015 RMK AC3CI1 SLP223
6:00 a.m.
V
52 °F 20 mi 7.100 ft 240° 240° 5 kt METAR CYEG 261200Z 24005KT 20SM BKN071 11/07 A3014 RMK AC7 SLP214
5:00 a.m.
V
55 °F 20 mi 7.000 ft 240° 240° 2 kt METAR CYEG 261100Z 24002KT 20SM BKN070 13/08 A3013 RMK AC7 SLP209 DENSITY ALT 2500FT
4:00 a.m.
V
55 °F 20 mi 7.100 ft 210° 210° 4 kt METAR CYEG 261000Z 21004KT 20SM OVC071 13/07 A3013 RMK AC8 SLP207 DENSITY ALT 2500FT
3:00 a.m.
V
55 °F 20 mi 6.900 ft Var 000° 0 kt METAR CYEG 260900Z 00000KT 20SM BKN069 13/07 A3013 RMK AC7 SLP207 DENSITY ALT 2500FT
2:00 a.m.
V
54 °F 20 mi 7.600 ft 220° 220° 3 kt METAR CYEG 260800Z 22003KT 20SM OVC076 12/07 A3013 RMK AC8 SLP209 DENSITY ALT 2400FT
1:00 a.m.
V
55 °F 20 mi 7.900 ft Var Var 2 kt METAR CYEG 260700Z VRB02KT 20SM BKN079 13/06 A3012 RMK AC7 SLP204 DENSITY ALT 2600FT
12:00 a.m.
V
57 °F 20 mi 8.100 ft 180° 180° 3 kt METAR CYEG 260600Z 18003KT 20SM SCT070 BKN081 14/06 A3011 RMK AC3AC4 SLP203 DENSITY ALT 2600FT

25 september 2022

Tijd Code Weer Temp. Zicht Plafond Wind METAR/SPECI
11:00 p.m.
V
55 °F 20 mi 8.100 ft 190° 190° 3 kt METAR CYEG 260500Z 19003KT 20SM BKN081 13/06 A3010 RMK AC7 SLP201 DENSITY ALT 2600FT
10:00 p.m.
V
55 °F 20 mi 11.000 ft 200° 200° 6 kt METAR CYEG 260400Z 20006KT 20SM SCT088 BKN110 BKN160 13/05 A3009 RMK AC4AC2AC1 SLP201 DENSITY ALT 2500FT
9:00 p.m.
V
54 °F 20 mi 14.000 ft 200° 200° 2 kt METAR CYEG 260300Z 20002KT 20SM SCT086 BKN140 BKN250 12/05 A3008 RMK AC3AC4CI1 CI TR SLP203 DENSITY ALT 2400FT
8:00 p.m.
V
57 °F 20 mi 25.000 ft 020° 020° 2 kt METAR CYEG 260200Z CCA 02002KT 20SM FEW140 SCT170 BKN250 14/04 A3007 RMK AC1AC2CI4 SLP200 DENSITY ALT 2600FT
7:00 p.m.
V
66 °F 20 mi 25.000 ft 320° 320° 3 kt METAR CYEG 260100Z 32003KT 20SM SCT170 BKN250 19/05 A3007 RMK AC4CI3 SLP197 DENSITY ALT 3300FT
6:00 p.m.
V
70 °F 20 mi 25.000 ft 300° 300° 8 kt METAR CYEG 260000Z 30008KT 20SM FEW160 BKN250 21/04 A3007 RMK AC1CI5 SLP197 DENSITY ALT 3500FT
5:00 p.m.
V
72 °F 20 mi - 310° 310° 7 kt METAR CYEG 252300Z 31007KT 20SM FEW160 SCT250 22/04 A3008 RMK AC1CI3 AC TR SLP204 DENSITY ALT 3600FT
4:00 p.m.
V
73 °F 20 mi 25.000 ft 300° 300° 6 kt METAR CYEG 252200Z CCA 30006KT 250V340 20SM SCT160 BKN250 23/03 A3010 RMK AC3CI2 SLP209 DENSITY ALT 3700FT
3:00 p.m.
V
72 °F 20 mi 25.000 ft 220° 220° 8 - 17 kt METAR CYEG 252100Z 22008G17KT 210V300 20SM FEW120 BKN250 22/01 A3011 RMK AC1CI7 AC TR SLP214 DENSITY ALT 3500FT
2:00 p.m.
V
70 °F 20 mi 25.000 ft 200° 200° 6 - 16 kt METAR CYEG 252000Z 20006G16KT 20SM FEW120 BKN250 21/01 A3013 RMK AC1CI6 SLP221 DENSITY ALT 3400FT
1:00 p.m.
V
68 °F 20 mi - 200° 200° 6 kt METAR CYEG 251900Z 20006KT 160V240 20SM FEW120 FEW200 FEW250 20/02 A3015 RMK AC1CC1CI2 AC TR CC TR SLP227 DENSITY ALT 3300FT
12:00 p.m.
V
66 °F 20 mi - 210° 210° 7 kt METAR CYEG 251800Z 21007KT 180V240 20SM FEW120 FEW200 FEW250 19/02 A3017 RMK AC1CC1CI2 AC TR CC TR SLP233 DENSITY ALT 3200FT
11:00 a.m.
V
61 °F 20 mi - 190° 190° 8 kt METAR CYEG 251700Z 19008KT 20SM FEW120 FEW200 SCT250 16/03 A3017 RMK AC1CC1CI3 AC TR SLP235 DENSITY ALT 2800FT
10:00 a.m.
V
54 °F 20 mi 25.000 ft 180° 180° 7 kt METAR CYEG 251600Z 18007KT 20SM FEW120 SCT200 BKN250 12/03 A3019 RMK AC1CC4CI3 AC TR SLP245
9:00 a.m.
V
45 °F 20 mi 25.000 ft 180° 180° 4 kt METAR CYEG 251500Z 18004KT 20SM FEW090 SCT200 BKN250 07/03 A3020 RMK AC1CC4CI3 AC TR SLP253
8:00 a.m.
V
41 °F 20 mi 20.000 ft 170° 170° 6 kt METAR CYEG 251400Z 17006KT 20SM FEW100 BKN200 BKN250 05/03 A3020 RMK AC1CC6CI1 CI TR SLP253
7:00 a.m.
V
37 °F 20 mi 21.000 ft 190° 190° 3 kt METAR CYEG 251300Z 19003KT 20SM FEW100 BKN210 03/01 A3022 RMK AC1CC6 SLP253
6:00 a.m.
V
36 °F 20 mi 21.000 ft 170° 170° 6 kt METAR CYEG 251200Z 17006KT 20SM SCT100 BKN210 02/01 A3022 RMK AC4CI1 SLP253
5:00 a.m.
V
32 °F 20 mi 11.000 ft 190° 190° 6 kt METAR CYEG 251100Z 19006KT 20SM BKN110 M00/M01 A3023 RMK AC5 SLP255
4:00 a.m.
V
30 °F 20 mi - 190° 190° 4 kt METAR CYEG 251000Z 19004KT 20SM FEW180 FEW240 M01/M02 A3024 RMK AC1CI1 CI TR SLP259
3:00 a.m.
V
30 °F 20 mi - 200° 200° 3 kt METAR CYEG 250900Z 20003KT 20SM FEW240 M01/M02 A3023 RMK CI2 SLP256
2:00 a.m.
V
32 °F 20 mi - 190° 190° 3 kt METAR CYEG 250800Z 19003KT 20SM FEW240 M00/M02 A3022 RMK CI1 SLP254
1:00 a.m.
V
34 °F 20 mi - Var 000° 0 kt METAR CYEG 250700Z 00000KT 20SM FEW240 01/M01 A3021 RMK CI1 SLP250
12:00 a.m.
V
36 °F 20 mi - 190° 190° 5 kt METAR CYEG 250600Z 19005KT 20SM SKC 02/00 A3020 RMK SLP246

24 september 2022

Tijd Code Weer Temp. Zicht Plafond Wind METAR/SPECI
11:00 p.m.
V
39 °F 20 mi - 190° 190° 5 kt METAR CYEG 250500Z 19005KT 20SM SKC 04/01 A3020 RMK SLP244
10:39 p.m.
V
36 °F 20 mi - 190° 190° 6 kt METAR CYEG 250439Z 19006KT 20SM FEW240 02/M01 A3020 RMK CI2 SLP246
10:00 p.m.
V
37 °F 20 mi - 200° 200° 7 kt METAR CYEG 250400Z 20007KT 20SM FEW240 03/M01 A3019 RMK CI2 SLP243
9:00 p.m.
V
39 °F 20 mi - 190° 190° 6 kt METAR CYEG 250300Z 19006KT 20SM FEW240 04/M01 A3017 RMK CI1 CI TR SLP237
8:00 p.m.
V
46 °F 20 mi 24.000 ft Var 000° 0 kt METAR CYEG 250200Z 00000KT 20SM BKN240 08/01 A3013 RMK CI6 SLP222
7:00 p.m.
V
59 °F 20 mi - 360° 360° 4 kt METAR CYEG 250100Z 36004KT 20SM FEW240 15/02 A3012 RMK CI1 SLP214 DENSITY ALT 2800FT
6:00 p.m.
V
64 °F 20 mi - 330° 330° 10 kt METAR CYEG 250000Z 33010KT 20SM FEW240 18/01 A3012 RMK CI1 CI TR SLP212 DENSITY ALT 3100FT
5:00 p.m.
V
66 °F 20 mi - 340° 340° 11 kt METAR CYEG 242300Z 34011KT 20SM FEW068 FEW240 19/01 A3010 RMK CU1CI1 CU TR CI TR SLP206 DENSITY ALT 3200FT
4:00 p.m.
V
66 °F 20 mi - 330° 330° 13 - 19 kt METAR CYEG 242200Z 33013G19KT 20SM FEW072 FEW240 19/01 A3010 RMK CU1CI1 CU TR CI TR SLP203 DENSITY ALT 3200FT
3:00 p.m.
V
66 °F 20 mi - 300° 300° 12 - 20 kt METAR CYEG 242100Z 30012G20KT 270V340 20SM FEW072 FEW240 19/01 A3010 RMK CU1CI1 CU TR CI TR SLP203 DENSITY ALT 3200FT
2:00 p.m.
V
64 °F 20 mi - 300° 300° 16 - 22 kt METAR CYEG 242000Z 30016G22KT 20SM FEW068 18/M00 A3009 RMK CU1 CU TR SLP201 DENSITY ALT 3100FT
1:00 p.m.
V
64 °F 20 mi - 310° 310° 15 - 26 kt METAR CYEG 241900Z 31015G26KT 20SM FEW068 18/01 A3008 RMK CU1 CU TR SLP197 DENSITY ALT 3100FT
12:00 p.m.
V
63 °F 20 mi - 310° 310° 22 - 29 kt METAR CYEG 241800Z 31022G29KT 20SM FEW100 17/00 A3006 RMK AC1 AC TR SLP192 DENSITY ALT 3000FT
11:00 a.m.
V
61 °F 20 mi - 310° 310° 16 - 28 kt METAR CYEG 241700Z 31016G28KT 20SM FEW100 16/02 A3006 RMK AC1 AC TR SLP191 DENSITY ALT 2900FT
10:00 a.m.
V
57 °F 20 mi - 290° 290° 10 kt METAR CYEG 241600Z 29010KT 20SM FEW081 FEW100 14/04 A3004 RMK AC1AC1 AC TR AC TR SLP188 DENSITY ALT 2700FT
9:00 a.m.
V
52 °F 20 mi - 260° 260° 8 kt METAR CYEG 241500Z 26008KT 20SM FEW081 FEW100 11/05 A3002 RMK AC1AC1 AC TR AC TR SLP180 DENSITY ALT 2400FT
Oudere gegevens

Met cookies volgen wij en derde partijen jouw internetgedrag binnen onze site. Als je verdergaat gaan we ervan uit dat je dit goedvindt. Meer info